This is the latest recevied weather packets stored in our database for station/object SQ5SUI-3. If no packets are shown the sender has not sent any weather packets the latest 10 day(s).
| Time | Temp. | Humidity | Pressure | Rain* | Wind** | Luminosity | Snow |
|---|---|---|---|---|---|---|---|
| 1778151809 | 17.78° C | 69% | 1016.7 hPa | 0 mm | - | - | - |
| 1778150009 | 20° C | 62% | 1017.2 hPa | 0 mm | - | - | - |
| 1778148210 | 21.11° C | 58% | 1017.9 hPa | 0 mm | - | - | - |
| 1778146409 | 20.56° C | 60% | 1018 hPa | 0 mm | - | - | - |
| 1778144609 | 22.22° C | 53% | 1018.5 hPa | 0 mm | - | - | - |
| 1778142808 | 21.67° C | 55% | 1018.6 hPa | 0 mm | - | - | - |
| 1778141009 | 20.56° C | 60% | 1018.7 hPa | 0 mm | - | - | - |
| 1778139210 | 20° C | 61% | 1018.9 hPa | 0 mm | - | - | - |
| 1778137409 | 20° C | 58% | 1019.3 hPa | 0 mm | - | - | - |
| 1778135609 | 20° C | 59% | 1019.8 hPa | 0 mm | - | - | - |
| 1778133808 | 18.89° C | 62% | 1019.8 hPa | 0 mm | - | - | - |
| 1778132009 | 16.67° C | 73% | 1020 hPa | 0 mm | - | - | - |
| 1778130209 | 14.44° C | 84% | 1020 hPa | 0 mm | - | - | - |
| 1778128410 | 12.78° C | 86% | 1020.1 hPa | 0 mm | - | - | - |
| 1778126610 | 12.22° C | 88% | 1020.3 hPa | 0 mm | - | - | - |
| 1778124810 | 11.67° C | 89% | 1020.7 hPa | 0 mm | - | - | - |
| 1778123009 | 11.67° C | 86% | 1021 hPa | 0 mm | - | - | - |
| 1778121208 | 12.22° C | 82% | 1021.1 hPa | 0 mm | - | - | - |
| 1778119410 | 13.33° C | 82% | 1021.1 hPa | 0 mm | - | - | - |
| 1778117609 | 14.44° C | 76% | 1020.9 hPa | 0 mm | - | - | - |
| 1778115809 | 15° C | 73% | 1021.3 hPa | 0 mm | - | - | - |
| 1778114008 | 15.56° C | 71% | 1021.7 hPa | 0 mm | - | - | - |
| 1778112208 | 15.56° C | 70% | 1021.6 hPa | 0 mm | - | - | - |
| 1778110410 | 16.11° C | 68% | 1021.4 hPa | 0 mm | - | - | - |
| 1778108609 | 14.44° C | 73% | 1022 hPa | 0 mm | - | - | - |
* Rain latest hour (hover to see other rain measurements)
** Current wind speed in m/s (hover to see current wind gust speed)